CPX954 Details

Departure: Patrick Air Force Base (KCOF)
Arrival: Miami International Airport (KMIA)
Route: MLB BLUFI4
Notes: EMPTY | NON-REVENUE REPOSITIONING LEG | VFR DEPARTURE RCMD IF WX PERMITS


Current Weather Information
KCOF 212156Z AUTO 12012KT 10SM CLR 29/22 A2993 RMK AO2 SLP140 T02850215 $
KMIA 212253Z 12012KT 10SM FEW040 FEW060 FEW250 29/20 A2993 RMK AO2 SLP136 T02890200